sensor_id;sensor_type;location;lat;lon;timestamp;temperature;humidity
78788;DHT22;68131;52.508;5.502;2023-04-08T00:01:04;8.20;75.50
78788;DHT22;68131;52.508;5.502;2023-04-08T00:03:33;8.20;75.30
78788;DHT22;68131;52.508;5.502;2023-04-08T00:06:03;8.10;75.40
78788;DHT22;68131;52.508;5.502;2023-04-08T00:08:33;8.00;75.50
78788;DHT22;68131;52.508;5.502;2023-04-08T00:11:05;8.00;75.50
78788;DHT22;68131;52.508;5.502;2023-04-08T00:13:34;8.10;75.50
78788;DHT22;68131;52.508;5.502;2023-04-08T00:16:03;8.10;75.40
78788;DHT22;68131;52.508;5.502;2023-04-08T00:18:33;8.20;75.20
78788;DHT22;68131;52.508;5.502;2023-04-08T00:21:03;8.20;75.00
78788;DHT22;68131;52.508;5.502;2023-04-08T00:23:32;8.20;75.00
78788;DHT22;68131;52.508;5.502;2023-04-08T00:26:01;8.10;74.80
78788;DHT22;68131;52.508;5.502;2023-04-08T00:28:33;8.10;74.70
78788;DHT22;68131;52.508;5.502;2023-04-08T00:31:02;8.00;74.80
78788;DHT22;68131;52.508;5.502;2023-04-08T00:33:31;7.90;74.90
78788;DHT22;68131;52.508;5.502;2023-04-08T00:36:01;7.80;75.00
78788;DHT22;68131;52.508;5.502;2023-04-08T00:38:30;7.70;75.00
78788;DHT22;68131;52.508;5.502;2023-04-08T00:40:59;7.70;75.10
78788;DHT22;68131;52.508;5.502;2023-04-08T00:43:28;7.70;74.70
78788;DHT22;68131;52.508;5.502;2023-04-08T00:46:00;7.60;74.40
78788;DHT22;68131;52.508;5.502;2023-04-08T00:48:29;7.50;74.50
78788;DHT22;68131;52.508;5.502;2023-04-08T00:50:59;7.50;74.50
78788;DHT22;68131;52.508;5.502;2023-04-08T00:53:30;7.50;74.20
78788;DHT22;68131;52.508;5.502;2023-04-08T00:55:59;7.50;74.10
78788;DHT22;68131;52.508;5.502;2023-04-08T00:58:29;7.50;73.90
78788;DHT22;68131;52.508;5.502;2023-04-08T01:01:04;7.40;73.90
78788;DHT22;68131;52.508;5.502;2023-04-08T01:03:41;7.30;73.90
78788;DHT22;68131;52.508;5.502;2023-04-08T01:06:14;7.20;74.00
78788;DHT22;68131;52.508;5.502;2023-04-08T01:08:48;7.10;74.30
78788;DHT22;68131;52.508;5.502;2023-04-08T01:11:19;7.10;74.20
78788;DHT22;68131;52.508;5.502;2023-04-08T01:13:52;7.10;74.30
78788;DHT22;68131;52.508;5.502;2023-04-08T01:16:25;7.10;74.20
78788;DHT22;68131;52.508;5.502;2023-04-08T01:18:55;7.10;73.80
78788;DHT22;68131;52.508;5.502;2023-04-08T01:21:26;7.10;73.60
78788;DHT22;68131;52.508;5.502;2023-04-08T01:24:03;7.10;73.70
78788;DHT22;68131;52.508;5.502;2023-04-08T01:26:37;7.10;73.40
78788;DHT22;68131;52.508;5.502;2023-04-08T01:29:07;7.10;73.30
78788;DHT22;68131;52.508;5.502;2023-04-08T01:31:39;7.10;73.10
78788;DHT22;68131;52.508;5.502;2023-04-08T01:34:09;7.00;73.00
78788;DHT22;68131;52.508;5.502;2023-04-08T01:36:39;6.90;73.10
78788;DHT22;68131;52.508;5.502;2023-04-08T01:39:13;6.90;73.10
78788;DHT22;68131;52.508;5.502;2023-04-08T01:41:47;6.80;73.00
78788;DHT22;68131;52.508;5.502;2023-04-08T01:44:19;6.70;72.70
78788;DHT22;68131;52.508;5.502;2023-04-08T01:46:51;6.70;72.50
78788;DHT22;68131;52.508;5.502;2023-04-08T01:49:21;6.60;72.50
78788;DHT22;68131;52.508;5.502;2023-04-08T01:51:52;6.60;72.30
78788;DHT22;68131;52.508;5.502;2023-04-08T01:54:23;6.60;71.90
78788;DHT22;68131;52.508;5.502;2023-04-08T01:56:56;6.50;71.80
78788;DHT22;68131;52.508;5.502;2023-04-08T01:59:30;6.50;71.60
78788;DHT22;68131;52.508;5.502;2023-04-08T02:02:01;6.40;71.40
78788;DHT22;68131;52.508;5.502;2023-04-08T02:04:33;6.40;71.40
78788;DHT22;68131;52.508;5.502;2023-04-08T02:07:03;6.30;71.20
78788;DHT22;68131;52.508;5.502;2023-04-08T02:09:33;6.20;71.20
78788;DHT22;68131;52.508;5.502;2023-04-08T02:12:05;6.20;71.00
78788;DHT22;68131;52.508;5.502;2023-04-08T02:14:34;6.20;71.00
78788;DHT22;68131;52.508;5.502;2023-04-08T02:17:08;6.10;71.00
78788;DHT22;68131;52.508;5.502;2023-04-08T02:19:43;6.10;71.00
78788;DHT22;68131;52.508;5.502;2023-04-08T02:22:22;6.10;70.90
78788;DHT22;68131;52.508;5.502;2023-04-08T02:24:53;6.10;70.90
78788;DHT22;68131;52.508;5.502;2023-04-08T02:27:26;6.10;70.80
78788;DHT22;68131;52.508;5.502;2023-04-08T02:29:57;6.00;70.80
78788;DHT22;68131;52.508;5.502;2023-04-08T02:32:29;6.00;70.70
78788;DHT22;68131;52.508;5.502;2023-04-08T02:35:01;6.00;70.80
78788;DHT22;68131;52.508;5.502;2023-04-08T02:37:31;6.00;70.80
78788;DHT22;68131;52.508;5.502;2023-04-08T02:40:00;5.90;70.90
78788;DHT22;68131;52.508;5.502;2023-04-08T02:42:32;5.90;70.90
78788;DHT22;68131;52.508;5.502;2023-04-08T02:45:01;5.90;70.90
78788;DHT22;68131;52.508;5.502;2023-04-08T02:47:31;5.90;71.00
78788;DHT22;68131;52.508;5.502;2023-04-08T02:50:00;5.90;71.10
78788;DHT22;68131;52.508;5.502;2023-04-08T02:52:29;5.90;71.10
78788;DHT22;68131;52.508;5.502;2023-04-08T02:54:58;5.90;71.00
78788;DHT22;68131;52.508;5.502;2023-04-08T02:57:28;5.90;71.10
78788;DHT22;68131;52.508;5.502;2023-04-08T03:00:00;6.00;71.30
78788;DHT22;68131;52.508;5.502;2023-04-08T03:02:29;6.00;71.30
78788;DHT22;68131;52.508;5.502;2023-04-08T03:04:58;6.10;71.40
78788;DHT22;68131;52.508;5.502;2023-04-08T03:07:27;6.10;71.40
78788;DHT22;68131;52.508;5.502;2023-04-08T03:09:56;6.10;71.50
78788;DHT22;68131;52.508;5.502;2023-04-08T03:12:26;6.10;71.60
78788;DHT22;68131;52.508;5.502;2023-04-08T03:14:55;6.10;71.80
78788;DHT22;68131;52.508;5.502;2023-04-08T03:17:27;6.10;71.80
78788;DHT22;68131;52.508;5.502;2023-04-08T03:19:58;6.10;71.80
78788;DHT22;68131;52.508;5.502;2023-04-08T03:22:29;6.00;71.90
78788;DHT22;68131;52.508;5.502;2023-04-08T03:24:59;6.00;72.10
78788;DHT22;68131;52.508;5.502;2023-04-08T03:27:28;6.00;72.20
78788;DHT22;68131;52.508;5.502;2023-04-08T03:29:57;6.00;72.10
78788;DHT22;68131;52.508;5.502;2023-04-08T03:32:28;6.00;71.80
78788;DHT22;68131;52.508;5.502;2023-04-08T03:34:57;5.90;71.60
78788;DHT22;68131;52.508;5.502;2023-04-08T03:37:27;5.80;71.40
78788;DHT22;68131;52.508;5.502;2023-04-08T03:39:56;5.70;71.70
78788;DHT22;68131;52.508;5.502;2023-04-08T03:42:25;5.60;71.90
78788;DHT22;68131;52.508;5.502;2023-04-08T03:44:55;5.50;72.10
78788;DHT22;68131;52.508;5.502;2023-04-08T03:47:24;5.50;72.20
78788;DHT22;68131;52.508;5.502;2023-04-08T03:49:55;5.50;72.40
78788;DHT22;68131;52.508;5.502;2023-04-08T03:52:25;5.60;72.30
78788;DHT22;68131;52.508;5.502;2023-04-08T03:54:54;5.60;72.40
78788;DHT22;68131;52.508;5.502;2023-04-08T03:57:23;5.70;72.40
78788;DHT22;68131;52.508;5.502;2023-04-08T03:59:52;5.70;72.00
78788;DHT22;68131;52.508;5.502;2023-04-08T04:02:21;5.60;71.90
78788;DHT22;68131;52.508;5.502;2023-04-08T04:04:50;5.50;71.90
78788;DHT22;68131;52.508;5.502;2023-04-08T04:07:22;5.50;72.00
78788;DHT22;68131;52.508;5.502;2023-04-08T04:09:51;5.40;72.10
78788;DHT22;68131;52.508;5.502;2023-04-08T04:12:22;5.40;71.90
78788;DHT22;68131;52.508;5.502;2023-04-08T04:14:51;5.40;71.90
78788;DHT22;68131;52.508;5.502;2023-04-08T04:17:20;5.30;72.00
78788;DHT22;68131;52.508;5.502;2023-04-08T04:19:49;5.30;72.10
78788;DHT22;68131;52.508;5.502;2023-04-08T04:22:19;5.30;72.20
78788;DHT22;68131;52.508;5.502;2023-04-08T04:24:50;5.20;72.20
78788;DHT22;68131;52.508;5.502;2023-04-08T04:27:19;5.20;72.20
78788;DHT22;68131;52.508;5.502;2023-04-08T04:29:48;5.20;72.30
78788;DHT22;68131;52.508;5.502;2023-04-08T04:32:17;5.10;72.30
78788;DHT22;68131;52.508;5.502;2023-04-08T04:34:47;5.10;72.40
78788;DHT22;68131;52.508;5.502;2023-04-08T04:37:16;5.10;72.50
78788;DHT22;68131;52.508;5.502;2023-04-08T04:39:45;5.00;72.50
78788;DHT22;68131;52.508;5.502;2023-04-08T04:42:17;5.00;72.50
78788;DHT22;68131;52.508;5.502;2023-04-08T04:44:46;5.00;72.60
78788;DHT22;68131;52.508;5.502;2023-04-08T04:47:15;5.00;72.60
78788;DHT22;68131;52.508;5.502;2023-04-08T04:49:44;4.90;72.60
78788;DHT22;68131;52.508;5.502;2023-04-08T04:52:14;4.90;72.80
78788;DHT22;68131;52.508;5.502;2023-04-08T04:54:43;4.80;73.00
78788;DHT22;68131;52.508;5.502;2023-04-08T04:57:12;4.80;73.10
78788;DHT22;68131;52.508;5.502;2023-04-08T04:59:43;4.80;73.10
78788;DHT22;68131;52.508;5.502;2023-04-08T05:02:12;4.80;73.10
78788;DHT22;68131;52.508;5.502;2023-04-08T05:04:42;4.80;73.20
78788;DHT22;68131;52.508;5.502;2023-04-08T05:07:11;4.80;73.20
78788;DHT22;68131;52.508;5.502;2023-04-08T05:09:40;4.80;73.20
78788;DHT22;68131;52.508;5.502;2023-04-08T05:12:09;4.80;73.30
78788;DHT22;68131;52.508;5.502;2023-04-08T05:14:38;4.80;73.40
78788;DHT22;68131;52.508;5.502;2023-04-08T05:17:10;4.70;73.40
78788;DHT22;68131;52.508;5.502;2023-04-08T05:19:39;4.80;73.50
78788;DHT22;68131;52.508;5.502;2023-04-08T05:22:08;5.00;73.90
78788;DHT22;68131;52.508;5.502;2023-04-08T05:24:37;5.30;73.40
78788;DHT22;68131;52.508;5.502;2023-04-08T05:27:06;5.50;72.80
78788;DHT22;68131;52.508;5.502;2023-04-08T05:29:35;5.50;72.70
78788;DHT22;68131;52.508;5.502;2023-04-08T05:32:04;5.50;72.60
78788;DHT22;68131;52.508;5.502;2023-04-08T05:34:36;5.60;72.90
78788;DHT22;68131;52.508;5.502;2023-04-08T05:37:05;6.00;73.40
78788;DHT22;68131;52.508;5.502;2023-04-08T05:39:34;6.80;73.40
78788;DHT22;68131;52.508;5.502;2023-04-08T05:42:04;7.50;72.00
78788;DHT22;68131;52.508;5.502;2023-04-08T05:44:33;8.10;70.30
78788;DHT22;68131;52.508;5.502;2023-04-08T05:47:02;8.70;69.20
78788;DHT22;68131;52.508;5.502;2023-04-08T05:49:32;9.30;67.80
78788;DHT22;68131;52.508;5.502;2023-04-08T05:52:04;9.80;66.20
78788;DHT22;68131;52.508;5.502;2023-04-08T05:54:33;10.30;64.80
78788;DHT22;68131;52.508;5.502;2023-04-08T05:57:02;10.60;63.70
78788;DHT22;68131;52.508;5.502;2023-04-08T05:59:31;10.50;63.50
78788;DHT22;68131;52.508;5.502;2023-04-08T06:02:00;10.50;63.10
78788;DHT22;68131;52.508;5.502;2023-04-08T06:04:30;10.40;63.40
78788;DHT22;68131;52.508;5.502;2023-04-08T06:06:59;10.20;63.60
78788;DHT22;68131;52.508;5.502;2023-04-08T06:09:34;9.90;63.90
78788;DHT22;68131;52.508;5.502;2023-04-08T06:12:03;9.60;64.70
78788;DHT22;68131;52.508;5.502;2023-04-08T06:14:33;9.40;65.30
78788;DHT22;68131;52.508;5.502;2023-04-08T06:17:02;9.20;65.50
78788;DHT22;68131;52.508;5.502;2023-04-08T06:19:32;9.00;65.80
78788;DHT22;68131;52.508;5.502;2023-04-08T06:22:01;9.00;66.10
78788;DHT22;68131;52.508;5.502;2023-04-08T06:24:32;8.90;65.80
78788;DHT22;68131;52.508;5.502;2023-04-08T06:27:02;8.70;66.10
78788;DHT22;68131;52.508;5.502;2023-04-08T06:29:31;8.70;66.50
78788;DHT22;68131;52.508;5.502;2023-04-08T06:32:01;8.60;66.80
78788;DHT22;68131;52.508;5.502;2023-04-08T06:34:31;8.60;66.70
78788;DHT22;68131;52.508;5.502;2023-04-08T06:37:00;8.50;66.80
78788;DHT22;68131;52.508;5.502;2023-04-08T06:39:32;8.50;67.10
78788;DHT22;68131;52.508;5.502;2023-04-08T06:42:01;8.50;67.30
78788;DHT22;68131;52.508;5.502;2023-04-08T06:44:38;8.50;67.10
78788;DHT22;68131;52.508;5.502;2023-04-08T06:47:07;8.50;67.00
78788;DHT22;68131;52.508;5.502;2023-04-08T06:49:36;8.50;67.40
78788;DHT22;68131;52.508;5.502;2023-04-08T06:52:06;8.70;67.10
78788;DHT22;68131;52.508;5.502;2023-04-08T06:54:38;8.90;66.60
78788;DHT22;68131;52.508;5.502;2023-04-08T06:57:07;8.90;66.80
78788;DHT22;68131;52.508;5.502;2023-04-08T06:59:36;9.00;67.10
78788;DHT22;68131;52.508;5.502;2023-04-08T07:02:05;9.00;66.60
78788;DHT22;68131;52.508;5.502;2023-04-08T07:04:35;9.00;66.50
78788;DHT22;68131;52.508;5.502;2023-04-08T07:07:04;8.90;67.00
78788;DHT22;68131;52.508;5.502;2023-04-08T07:09:33;8.90;67.20
78788;DHT22;68131;52.508;5.502;2023-04-08T07:12:05;8.90;66.80
78788;DHT22;68131;52.508;5.502;2023-04-08T07:14:34;8.80;67.00
78788;DHT22;68131;52.508;5.502;2023-04-08T07:17:03;8.70;67.50
78788;DHT22;68131;52.508;5.502;2023-04-08T07:19:32;8.80;67.60
78788;DHT22;68131;52.508;5.502;2023-04-08T07:22:01;8.70;67.60
78788;DHT22;68131;52.508;5.502;2023-04-08T07:24:30;8.70;68.30
78788;DHT22;68131;52.508;5.502;2023-04-08T07:26:59;8.70;68.10
78788;DHT22;68131;52.508;5.502;2023-04-08T07:29:31;8.70;68.50
78788;DHT22;68131;52.508;5.502;2023-04-08T07:32:00;8.80;69.30
78788;DHT22;68131;52.508;5.502;2023-04-08T07:34:30;9.30;68.60
78788;DHT22;68131;52.508;5.502;2023-04-08T07:36:59;9.50;67.10
78788;DHT22;68131;52.508;5.502;2023-04-08T07:39:28;9.40;67.40
78788;DHT22;68131;52.508;5.502;2023-04-08T07:41:57;9.30;67.50
78788;DHT22;68131;52.508;5.502;2023-04-08T07:44:26;9.20;67.80
78788;DHT22;68131;52.508;5.502;2023-04-08T07:46:58;9.20;68.10
78788;DHT22;68131;52.508;5.502;2023-04-08T07:49:27;9.30;67.80
78788;DHT22;68131;52.508;5.502;2023-04-08T07:51:56;9.30;67.80
78788;DHT22;68131;52.508;5.502;2023-04-08T07:54:25;9.30;68.10
78788;DHT22;68131;52.508;5.502;2023-04-08T07:56:54;9.30;68.20
78788;DHT22;68131;52.508;5.502;2023-04-08T07:59:25;9.40;68.00
78788;DHT22;68131;52.508;5.502;2023-04-08T08:01:54;9.60;67.80
78788;DHT22;68131;52.508;5.502;2023-04-08T08:04:25;9.70;67.80
78788;DHT22;68131;52.508;5.502;2023-04-08T08:06:54;9.80;67.60
78788;DHT22;68131;52.508;5.502;2023-04-08T08:09:24;9.80;67.50
78788;DHT22;68131;52.508;5.502;2023-04-08T08:11:53;9.90;67.20
78788;DHT22;68131;52.508;5.502;2023-04-08T08:14:22;9.90;67.50
78788;DHT22;68131;52.508;5.502;2023-04-08T08:16:51;9.80;67.60
78788;DHT22;68131;52.508;5.502;2023-04-08T08:19:21;9.80;67.50
78788;DHT22;68131;52.508;5.502;2023-04-08T08:21:53;9.70;68.40
78788;DHT22;68131;52.508;5.502;2023-04-08T08:24:22;10.00;68.30
78788;DHT22;68131;52.508;5.502;2023-04-08T08:26:52;10.10;67.20
78788;DHT22;68131;52.508;5.502;2023-04-08T08:29:21;10.00;67.30
78788;DHT22;68131;52.508;5.502;2023-04-08T08:31:50;10.10;67.40
78788;DHT22;68131;52.508;5.502;2023-04-08T08:34:20;10.20;67.90
78788;DHT22;68131;52.508;5.502;2023-04-08T08:36:49;10.30;66.90
78788;DHT22;68131;52.508;5.502;2023-04-08T08:39:20;10.40;66.40
78788;DHT22;68131;52.508;5.502;2023-04-08T08:41:49;10.50;66.50
78788;DHT22;68131;52.508;5.502;2023-04-08T08:44:18;10.70;66.30
78788;DHT22;68131;52.508;5.502;2023-04-08T08:46:48;10.70;66.50
78788;DHT22;68131;52.508;5.502;2023-04-08T08:49:17;10.70;66.80
78788;DHT22;68131;52.508;5.502;2023-04-08T08:51:46;10.70;66.40
78788;DHT22;68131;52.508;5.502;2023-04-08T08:54:16;10.70;66.60
78788;DHT22;68131;52.508;5.502;2023-04-08T08:56:48;10.80;66.40
78788;DHT22;68131;52.508;5.502;2023-04-08T08:59:18;10.90;66.40
78788;DHT22;68131;52.508;5.502;2023-04-08T09:01:47;11.00;66.20
78788;DHT22;68131;52.508;5.502;2023-04-08T09:04:17;11.10;65.50
78788;DHT22;68131;52.508;5.502;2023-04-08T09:06:49;11.20;65.30
78788;DHT22;68131;52.508;5.502;2023-04-08T09:09:18;11.30;65.60
78788;DHT22;68131;52.508;5.502;2023-04-08T09:12:02;11.40;65.50
78788;DHT22;68131;52.508;5.502;2023-04-08T09:14:31;11.50;65.60
78788;DHT22;68131;52.508;5.502;2023-04-08T09:17:01;11.70;65.30
78788;DHT22;68131;52.508;5.502;2023-04-08T09:19:31;11.80;64.60
78788;DHT22;68131;52.508;5.502;2023-04-08T09:22:07;11.90;65.60
78788;DHT22;68131;52.508;5.502;2023-04-08T09:24:37;12.20;64.10
78788;DHT22;68131;52.508;5.502;2023-04-08T09:27:08;12.40;61.90
78788;DHT22;68131;52.508;5.502;2023-04-08T09:29:37;12.40;62.50
78788;DHT22;68131;52.508;5.502;2023-04-08T09:32:07;12.50;63.20
78788;DHT22;68131;52.508;5.502;2023-04-08T09:34:36;12.50;63.00
78788;DHT22;68131;52.508;5.502;2023-04-08T09:37:05;12.30;63.60
78788;DHT22;68131;52.508;5.502;2023-04-08T09:39:34;12.30;63.40
78788;DHT22;68131;52.508;5.502;2023-04-08T09:42:07;12.40;62.80
78788;DHT22;68131;52.508;5.502;2023-04-08T09:44:39;12.40;62.20
78788;DHT22;68131;52.508;5.502;2023-04-08T09:47:18;12.40;61.80
78788;DHT22;68131;52.508;5.502;2023-04-08T09:49:53;12.30;62.30
78788;DHT22;68131;52.508;5.502;2023-04-08T09:52:27;12.50;62.40
78788;DHT22;68131;52.508;5.502;2023-04-08T09:55:00;12.70;62.80
78788;DHT22;68131;52.508;5.502;2023-04-08T09:57:40;12.70;62.80
78788;DHT22;68131;52.508;5.502;2023-04-08T10:00:12;12.90;63.40
78788;DHT22;68131;52.508;5.502;2023-04-08T10:02:53;13.00;61.70
78788;DHT22;68131;52.508;5.502;2023-04-08T10:05:23;13.00;61.20
78788;DHT22;68131;52.508;5.502;2023-04-08T10:07:55;13.00;60.40
78788;DHT22;68131;52.508;5.502;2023-04-08T10:10:24;12.90;60.80
78788;DHT22;68131;52.508;5.502;2023-04-08T10:12:57;12.90;60.00
78788;DHT22;68131;52.508;5.502;2023-04-08T10:15:27;12.80;58.90
78788;DHT22;68131;52.508;5.502;2023-04-08T10:20:55;12.80;57.90
78788;DHT22;68131;52.508;5.502;2023-04-08T10:23:52;12.70;58.70
78788;DHT22;68131;52.508;5.502;2023-04-08T10:26:34;12.50;59.10
78788;DHT22;68131;52.508;5.502;2023-04-08T10:32:27;12.50;60.60
78788;DHT22;68131;52.508;5.502;2023-04-08T10:34:56;12.60;60.70
78788;DHT22;68131;52.508;5.502;2023-04-08T10:37:26;12.50;61.80
78788;DHT22;68131;52.508;5.502;2023-04-08T10:39:55;12.50;62.30
78788;DHT22;68131;52.508;5.502;2023-04-08T10:42:27;12.50;62.50
78788;DHT22;68131;52.508;5.502;2023-04-08T10:45:00;12.50;62.80
78788;DHT22;68131;52.508;5.502;2023-04-08T10:47:32;12.70;62.60
78788;DHT22;68131;52.508;5.502;2023-04-08T10:50:11;12.80;62.90
78788;DHT22;68131;52.508;5.502;2023-04-08T10:52:46;12.90;60.10
78788;DHT22;68131;52.508;5.502;2023-04-08T10:55:15;12.80;61.00
78788;DHT22;68131;52.508;5.502;2023-04-08T10:57:44;12.70;61.40
78788;DHT22;68131;52.508;5.502;2023-04-08T11:00:17;12.80;61.50
78788;DHT22;68131;52.508;5.502;2023-04-08T11:02:49;12.90;60.70
78788;DHT22;68131;52.508;5.502;2023-04-08T11:05:21;12.90;61.30
78788;DHT22;68131;52.508;5.502;2023-04-08T11:07:51;13.00;61.20
78788;DHT22;68131;52.508;5.502;2023-04-08T11:10:20;13.00;61.70
78788;DHT22;68131;52.508;5.502;2023-04-08T11:12:50;13.00;61.90
78788;DHT22;68131;52.508;5.502;2023-04-08T11:15:19;12.90;61.90
78788;DHT22;68131;52.508;5.502;2023-04-08T11:17:51;13.10;62.00
78788;DHT22;68131;52.508;5.502;2023-04-08T11:20:22;13.30;61.70
78788;DHT22;68131;52.508;5.502;2023-04-08T11:22:51;13.20;61.70
78788;DHT22;68131;52.508;5.502;2023-04-08T11:25:20;13.30;62.20
78788;DHT22;68131;52.508;5.502;2023-04-08T11:27:50;13.30;61.50
78788;DHT22;68131;52.508;5.502;2023-04-08T11:30:19;13.30;61.30
78788;DHT22;68131;52.508;5.502;2023-04-08T11:32:51;13.20;59.70
78788;DHT22;68131;52.508;5.502;2023-04-08T11:35:22;13.10;60.00
78788;DHT22;68131;52.508;5.502;2023-04-08T11:37:51;13.20;60.90
78788;DHT22;68131;52.508;5.502;2023-04-08T11:40:20;13.20;61.30
78788;DHT22;68131;52.508;5.502;2023-04-08T11:42:50;13.20;62.50
78788;DHT22;68131;52.508;5.502;2023-04-08T11:45:20;13.20;62.90
78788;DHT22;68131;52.508;5.502;2023-04-08T11:47:52;13.30;62.80
78788;DHT22;68131;52.508;5.502;2023-04-08T11:50:25;13.40;63.10
78788;DHT22;68131;52.508;5.502;2023-04-08T11:52:55;13.40;63.00
78788;DHT22;68131;52.508;5.502;2023-04-08T11:55:26;13.50;62.50
78788;DHT22;68131;52.508;5.502;2023-04-08T11:58:01;13.60;62.90
78788;DHT22;68131;52.508;5.502;2023-04-08T12:00:31;13.80;62.20
78788;DHT22;68131;52.508;5.502;2023-04-08T12:03:03;13.90;61.80
78788;DHT22;68131;52.508;5.502;2023-04-08T12:05:32;14.00;62.10
78788;DHT22;68131;52.508;5.502;2023-04-08T12:08:02;14.00;61.30
78788;DHT22;68131;52.508;5.502;2023-04-08T12:10:32;14.00;61.50
78788;DHT22;68131;52.508;5.502;2023-04-08T12:13:01;13.90;61.70
78788;DHT22;68131;52.508;5.502;2023-04-08T12:15:30;13.90;62.30
78788;DHT22;68131;52.508;5.502;2023-04-08T12:18:01;13.90;62.30
78788;DHT22;68131;52.508;5.502;2023-04-08T12:20:31;13.80;62.30
78788;DHT22;68131;52.508;5.502;2023-04-08T12:23:00;13.80;62.10
78788;DHT22;68131;52.508;5.502;2023-04-08T12:25:29;13.50;62.60
78788;DHT22;68131;52.508;5.502;2023-04-08T12:27:59;13.40;62.80
78788;DHT22;68131;52.508;5.502;2023-04-08T12:30:28;13.40;62.60
78788;DHT22;68131;52.508;5.502;2023-04-08T12:32:58;13.30;62.90
78788;DHT22;68131;52.508;5.502;2023-04-08T12:35:30;13.20;63.20
78788;DHT22;68131;52.508;5.502;2023-04-08T12:37:59;13.20;63.10
78788;DHT22;68131;52.508;5.502;2023-04-08T12:40:28;13.10;62.70
78788;DHT22;68131;52.508;5.502;2023-04-08T12:42:57;13.10;62.80
78788;DHT22;68131;52.508;5.502;2023-04-08T12:45:26;13.10;62.40
78788;DHT22;68131;52.508;5.502;2023-04-08T12:47:55;12.90;62.90
78788;DHT22;68131;52.508;5.502;2023-04-08T12:50:24;13.00;62.30
78788;DHT22;68131;52.508;5.502;2023-04-08T12:52:56;12.90;62.40
78788;DHT22;68131;52.508;5.502;2023-04-08T12:55:25;12.70;63.10
78788;DHT22;68131;52.508;5.502;2023-04-08T12:57:54;12.70;63.20
78788;DHT22;68131;52.508;5.502;2023-04-08T13:00:23;12.70;63.40
78788;DHT22;68131;52.508;5.502;2023-04-08T13:02:53;12.70;63.80
78788;DHT22;68131;52.508;5.502;2023-04-08T13:05:22;12.80;63.50
78788;DHT22;68131;52.508;5.502;2023-04-08T13:07:51;12.90;63.50
78788;DHT22;68131;52.508;5.502;2023-04-08T13:10:23;12.90;63.20
78788;DHT22;68131;52.508;5.502;2023-04-08T13:12:52;12.90;63.20
78788;DHT22;68131;52.508;5.502;2023-04-08T13:15:21;12.90;63.10
78788;DHT22;68131;52.508;5.502;2023-04-08T13:17:50;12.80;63.00
78788;DHT22;68131;52.508;5.502;2023-04-08T13:20:19;12.70;63.20
78788;DHT22;68131;52.508;5.502;2023-04-08T13:22:51;12.80;63.00
78788;DHT22;68131;52.508;5.502;2023-04-08T13:25:22;12.80;63.10
78788;DHT22;68131;52.508;5.502;2023-04-08T13:27:51;12.80;63.10
78788;DHT22;68131;52.508;5.502;2023-04-08T13:30:21;12.80;62.90
78788;DHT22;68131;52.508;5.502;2023-04-08T13:32:50;12.90;63.20
78788;DHT22;68131;52.508;5.502;2023-04-08T13:35:19;13.00;62.80
78788;DHT22;68131;52.508;5.502;2023-04-08T13:37:49;13.00;62.50
78788;DHT22;68131;52.508;5.502;2023-04-08T13:40:18;13.10;62.80
78788;DHT22;68131;52.508;5.502;2023-04-08T13:42:50;13.00;62.50
78788;DHT22;68131;52.508;5.502;2023-04-08T13:45:19;13.00;62.70
78788;DHT22;68131;52.508;5.502;2023-04-08T13:47:48;13.00;62.90
78788;DHT22;68131;52.508;5.502;2023-04-08T13:50:17;13.10;62.60
78788;DHT22;68131;52.508;5.502;2023-04-08T13:52:46;13.00;62.50
78788;DHT22;68131;52.508;5.502;2023-04-08T13:55:16;13.00;62.80
78788;DHT22;68131;52.508;5.502;2023-04-08T13:57:45;13.20;62.70
78788;DHT22;68131;52.508;5.502;2023-04-08T14:00:17;13.20;63.00
78788;DHT22;68131;52.508;5.502;2023-04-08T14:02:47;13.30;62.70
78788;DHT22;68131;52.508;5.502;2023-04-08T14:05:16;13.30;63.00
78788;DHT22;68131;52.508;5.502;2023-04-08T14:07:46;13.30;63.20
78788;DHT22;68131;52.508;5.502;2023-04-08T14:10:15;13.40;63.30
78788;DHT22;68131;52.508;5.502;2023-04-08T14:12:44;13.60;63.60
78788;DHT22;68131;52.508;5.502;2023-04-08T14:15:17;13.70;63.50
78788;DHT22;68131;52.508;5.502;2023-04-08T14:17:46;13.80;63.20
78788;DHT22;68131;52.508;5.502;2023-04-08T14:20:15;13.70;63.30
78788;DHT22;68131;52.508;5.502;2023-04-08T14:22:44;13.60;63.70
78788;DHT22;68131;52.508;5.502;2023-04-08T14:25:13;13.60;63.90
78788;DHT22;68131;52.508;5.502;2023-04-08T14:27:42;13.60;64.20
78788;DHT22;68131;52.508;5.502;2023-04-08T14:30:12;13.70;64.30
78788;DHT22;68131;52.508;5.502;2023-04-08T14:32:44;13.80;64.40
78788;DHT22;68131;52.508;5.502;2023-04-08T14:35:13;13.90;64.30
78788;DHT22;68131;52.508;5.502;2023-04-08T14:37:42;14.00;64.30
78788;DHT22;68131;52.508;5.502;2023-04-08T14:40:12;14.10;64.20
78788;DHT22;68131;52.508;5.502;2023-04-08T14:42:41;14.20;64.10
78788;DHT22;68131;52.508;5.502;2023-04-08T14:45:10;14.30;63.70
78788;DHT22;68131;52.508;5.502;2023-04-08T14:47:39;14.30;63.50
78788;DHT22;68131;52.508;5.502;2023-04-08T14:50:11;14.20;63.30
78788;DHT22;68131;52.508;5.502;2023-04-08T14:52:41;14.00;63.50
78788;DHT22;68131;52.508;5.502;2023-04-08T14:55:10;13.70;64.20
78788;DHT22;68131;52.508;5.502;2023-04-08T14:57:39;13.60;64.90
78788;DHT22;68131;52.508;5.502;2023-04-08T15:00:09;13.70;65.20
78788;DHT22;68131;52.508;5.502;2023-04-08T15:02:38;13.70;65.30
78788;DHT22;68131;52.508;5.502;2023-04-08T15:05:08;13.80;65.60
78788;DHT22;68131;52.508;5.502;2023-04-08T15:07:39;13.80;65.30
78788;DHT22;68131;52.508;5.502;2023-04-08T15:10:09;13.80;65.20
78788;DHT22;68131;52.508;5.502;2023-04-08T15:12:38;13.90;65.50
78788;DHT22;68131;52.508;5.502;2023-04-08T15:15:08;13.80;66.00
78788;DHT22;68131;52.508;5.502;2023-04-08T15:17:37;13.70;66.00
78788;DHT22;68131;52.508;5.502;2023-04-08T15:20:08;13.70;66.40
78788;DHT22;68131;52.508;5.502;2023-04-08T15:22:41;13.70;66.50
78788;DHT22;68131;52.508;5.502;2023-04-08T15:25:10;13.80;66.50
78788;DHT22;68131;52.508;5.502;2023-04-08T15:27:40;13.80;66.40
78788;DHT22;68131;52.508;5.502;2023-04-08T15:30:10;13.90;66.30
78788;DHT22;68131;52.508;5.502;2023-04-08T15:32:39;13.80;66.30
78788;DHT22;68131;52.508;5.502;2023-04-08T15:35:09;13.70;66.30
78788;DHT22;68131;52.508;5.502;2023-04-08T15:37:41;13.70;66.50
78788;DHT22;68131;52.508;5.502;2023-04-08T15:40:10;13.80;66.60
78788;DHT22;68131;52.508;5.502;2023-04-08T15:42:39;13.90;66.40
78788;DHT22;68131;52.508;5.502;2023-04-08T15:45:10;14.00;66.30
78788;DHT22;68131;52.508;5.502;2023-04-08T15:47:39;14.00;66.10
78788;DHT22;68131;52.508;5.502;2023-04-08T15:50:10;13.80;66.30
78788;DHT22;68131;52.508;5.502;2023-04-08T15:52:42;13.60;66.60
78788;DHT22;68131;52.508;5.502;2023-04-08T15:55:11;13.50;66.90
78788;DHT22;68131;52.508;5.502;2023-04-08T15:57:41;13.50;67.00
78788;DHT22;68131;52.508;5.502;2023-04-08T16:00:11;13.50;67.10
78788;DHT22;68131;52.508;5.502;2023-04-08T16:02:40;13.60;67.00